PWSweather.com
Personal Weather Stations
Station Observations
KCOGRAND2
Redlands, Southcamp Road & Dakota Circle, Grand Junction, CO 81507

Redlands, Southcamp Road & Dakota CircleGrand Junction, CO 81507

Lat: 39.055, Lon: -108.637

Elevation: 4870

Station Type: RadioShack WX200

High Low Average
Temperature 47.1°F8.4°C 24.1°F-4.4°C 34.8°F1.6°C
Dew Point 13.8°F-10.1°C 2.1°F-16.6°C 9.4°F-12.6°C
Winds 10.0 mph 16.1 kmh Calm Calm 4.0 mph S6.4 kmh S
Wind Gusts 16.8 mph27.0 kmh -- 7.0 mph11.3 kmh
Humidity 56% 17% 37%
Pressure 25.13 in851.0 mb 24.98 in845.9 mb -
Precipitation 0.00 in0.0 mm - -
Hour Temp Dew Point Humidity Winds Wind Gusts Pressure Precip Precip Rate Daily Precip Total
12:04 AM 33.3°F0.7°C 12.7°F-10.7°C 42% 2.0 mph SW3.2 kmh SW 6.9 mph11.1 kmh 25.13 in851.0 mb 0.00 in0.0 mm 0.00 in/hr0.0 mm/hr 0.00 in0.0 mm
12:09 AM 33.8°F1.0°C 13.1°F-10.5°C 42% 4.0 mph SW6.4 kmh SW 6.9 mph11.1 kmh 25.13 in851.0 mb 0.00 in0.0 mm 0.00 in/hr0.0 mm/hr 0.00 in0.0 mm
12:14 AM 33.8°F1.0°C 13.1°F-10.5°C 42% 4.0 mph SW6.4 kmh SW 8.3 mph13.4 kmh 25.13 in851.0 mb 0.00 in0.0 mm 0.00 in/hr0.0 mm/hr 0.00 in0.0 mm
12:19 AM 33.6°F0.9°C 12.9°F-10.6°C 42% 4.0 mph WSW6.4 kmh WSW 6.9 mph11.1 kmh 25.13 in851.0 mb 0.00 in0.0 mm 0.00 in/hr0.0 mm/hr 0.00 in0.0 mm
12:24 AM 33.8°F1.0°C 13.1°F-10.5°C 42% 4.0 mph WSW6.4 kmh WSW 7.4 mph11.9 kmh 25.13 in851.0 mb 0.00 in0.0 mm 0.00 in/hr0.0 mm/hr 0.00 in0.0 mm
12:29 AM 33.8°F1.0°C 12.6°F-10.8°C 41% 4.0 mph WSW6.4 kmh WSW 6.7 mph10.8 kmh 25.13 in851.0 mb 0.00 in0.0 mm 0.00 in/hr0.0 mm/hr 0.00 in0.0 mm
12:34 AM 33.6°F0.9°C 12.4°F-10.9°C 41% 4.0 mph WSW6.4 kmh WSW 4.9 mph7.9 kmh 25.13 in851.0 mb 0.00 in0.0 mm 0.00 in/hr0.0 mm/hr 0.00 in0.0 mm
12:39 AM 33.3°F0.7°C 12.7°F-10.7°C 42% 3.0 mph WSW4.8 kmh WSW 4.5 mph7.2 kmh 25.13 in851.0 mb 0.00 in0.0 mm 0.00 in/hr0.0 mm/hr 0.00 in0.0 mm
12:44 AM 32.9°F0.5°C 12.4°F-10.9°C 42% 3.0 mph WSW4.8 kmh WSW 4.9 mph7.9 kmh 25.13 in851.0 mb 0.00 in0.0 mm 0.00 in/hr0.0 mm/hr 0.00 in0.0 mm
12:49 AM 32.7°F0.4°C 12.7°F-10.7°C 43% 3.0 mph WSW4.8 kmh WSW 4.5 mph7.2 kmh 25.13 in851.0 mb 0.00 in0.0 mm 0.00 in/hr0.0 mm/hr 0.00 in0.0 mm
12:54 AM 32.7°F0.4°C 12.7°F-10.7°C 43% 2.0 mph W3.2 kmh W 4.5 mph7.2 kmh 25.13 in851.0 mb 0.00 in0.0 mm 0.00 in/hr0.0 mm/hr 0.00 in0.0 mm
12:59 AM 32.5°F0.3°C 12.6°F-10.8°C 43% 2.0 mph W3.2 kmh W 4.9 mph7.9 kmh 25.13 in851.0 mb 0.00 in0.0 mm 0.00 in/hr0.0 mm/hr 0.00 in0.0 mm
01:04 AM 32.5°F0.3°C 12.6°F-10.8°C 43% 2.0 mph W3.2 kmh W 4.0 mph6.4 kmh 25.13 in851.0 mb 0.00 in0.0 mm 0.00 in/hr0.0 mm/hr 0.00 in0.0 mm
01:09 AM 32.5°F0.3°C 12.6°F-10.8°C 43% 1.0 mph W1.6 kmh W 5.4 mph8.7 kmh 25.13 in851.0 mb 0.00 in0.0 mm 0.00 in/hr0.0 mm/hr 0.00 in0.0 mm
01:14 AM 32.9°F0.5°C 12.4°F-10.9°C 42% 2.0 mph WSW3.2 kmh WSW 5.4 mph8.7 kmh 25.13 in851.0 mb 0.00 in0.0 mm 0.00 in/hr0.0 mm/hr 0.00 in0.0 mm
01:19 AM 33.4°F0.8°C 12.9°F-10.6°C 42% 4.0 mph WSW6.4 kmh WSW 7.4 mph11.9 kmh 25.13 in851.0 mb 0.00 in0.0 mm 0.00 in/hr0.0 mm/hr 0.00 in0.0 mm
01:24 AM 33.3°F0.7°C 12.7°F-10.7°C 42% 4.0 mph WSW6.4 kmh WSW 6.7 mph10.8 kmh 25.13 in851.0 mb 0.00 in0.0 mm 0.00 in/hr0.0 mm/hr 0.00 in0.0 mm
01:29 AM 32.9°F0.5°C 12.4°F-10.9°C 42% 4.0 mph WSW6.4 kmh WSW 5.8 mph9.3 kmh 25.13 in851.0 mb 0.00 in0.0 mm 0.00 in/hr0.0 mm/hr 0.00 in0.0 mm
01:34 AM 32.7°F0.4°C 12.2°F-11.0°C 42% 3.0 mph WSW4.8 kmh WSW 5.8 mph9.3 kmh 25.13 in851.0 mb 0.00 in0.0 mm 0.00 in/hr0.0 mm/hr 0.00 in0.0 mm
01:39 AM 32.4°F0.2°C 11.8°F-11.2°C 42% 1.0 mph WSW1.6 kmh WSW 3.1 mph5.0 kmh 25.13 in851.0 mb 0.00 in0.0 mm 0.00 in/hr0.0 mm/hr 0.00 in0.0 mm
01:44 AM 31.8°F-0.1°C 11.3°F-11.5°C 42% Calm Calm 2.7 mph4.3 kmh 25.13 in851.0 mb 0.00 in0.0 mm 0.00 in/hr0.0 mm/hr 0.00 in0.0 mm
01:49 AM 32.2°F0.1°C 12.2°F-11.0°C 43% 1.0 mph WSW1.6 kmh WSW 3.6 mph5.8 kmh 25.13 in851.0 mb 0.00 in0.0 mm 0.00 in/hr0.0 mm/hr 0.00 in0.0 mm
01:54 AM 32.5°F0.3°C 12.0°F-11.1°C 42% 2.0 mph WSW3.2 kmh WSW 4.9 mph7.9 kmh 25.13 in851.0 mb 0.00 in0.0 mm 0.00 in/hr0.0 mm/hr 0.00 in0.0 mm
01:59 AM 32.5°F0.3°C 12.0°F-11.1°C 42% 4.0 mph WSW6.4 kmh WSW 5.8 mph9.3 kmh 25.13 in851.0 mb 0.00 in0.0 mm 0.00 in/hr0.0 mm/hr 0.00 in0.0 mm
02:04 AM 32.2°F0.1°C 11.7°F-11.3°C 42% 2.0 mph W3.2 kmh W 4.5 mph7.2 kmh 25.13 in851.0 mb 0.00 in0.0 mm 0.00 in/hr0.0 mm/hr 0.00 in0.0 mm
02:09 AM 32.0°F0.0°C 11.5°F-11.4°C 42% 1.0 mph W1.6 kmh W 3.6 mph5.8 kmh 25.13 in851.0 mb 0.00 in0.0 mm 0.00 in/hr0.0 mm/hr 0.00 in0.0 mm
02:14 AM 32.2°F0.1°C 11.7°F-11.3°C 42% 2.0 mph W3.2 kmh W 6.7 mph10.8 kmh 25.13 in851.0 mb 0.00 in0.0 mm 0.00 in/hr0.0 mm/hr 0.00 in0.0 mm
02:19 AM 31.6°F-0.2°C 11.1°F-11.6°C 42% 3.0 mph WSW4.8 kmh WSW 6.3 mph10.1 kmh 25.13 in851.0 mb 0.00 in0.0 mm 0.00 in/hr0.0 mm/hr 0.00 in0.0 mm
02:24 AM 31.8°F-0.1°C 11.3°F-11.5°C 42% 2.0 mph WSW3.2 kmh WSW 4.0 mph6.4 kmh 25.13 in851.0 mb 0.00 in0.0 mm 0.00 in/hr0.0 mm/hr 0.00 in0.0 mm
02:29 AM 31.6°F-0.2°C 11.1°F-11.6°C 42% 2.0 mph WSW3.2 kmh WSW 4.0 mph6.4 kmh 25.13 in851.0 mb 0.00 in0.0 mm 0.00 in/hr0.0 mm/hr 0.00 in0.0 mm
02:34 AM 31.3°F-0.4°C 10.9°F-11.7°C 42% 2.0 mph WSW3.2 kmh WSW 4.5 mph7.2 kmh 25.13 in851.0 mb 0.00 in0.0 mm 0.00 in/hr0.0 mm/hr 0.00 in0.0 mm
02:39 AM 31.1°F-0.5°C 11.3°F-11.5°C 43% 3.0 mph WSW4.8 kmh WSW 6.9 mph11.1 kmh 25.13 in851.0 mb 0.00 in0.0 mm 0.00 in/hr0.0 mm/hr 0.00 in0.0 mm
02:44 AM 30.7°F-0.7°C 11.5°F-11.4°C 44% 4.0 mph W6.4 kmh W 5.8 mph9.3 kmh 25.13 in851.0 mb 0.00 in0.0 mm 0.00 in/hr0.0 mm/hr 0.00 in0.0 mm
02:50 AM 30.2°F-1.0°C 11.5°F-11.4°C 45% 3.0 mph WNW4.8 kmh WNW 4.0 mph6.4 kmh 25.13 in851.0 mb 0.00 in0.0 mm 0.00 in/hr0.0 mm/hr 0.00 in0.0 mm
02:55 AM 29.7°F-1.3°C 11.5°F-11.4°C 46% 3.0 mph WNW4.8 kmh WNW 5.8 mph9.3 kmh 25.13 in851.0 mb 0.00 in0.0 mm 0.00 in/hr0.0 mm/hr 0.00 in0.0 mm
03:00 AM 30.4°F-0.9°C 12.0°F-11.1°C 46% 4.0 mph W6.4 kmh W 7.4 mph11.9 kmh 25.13 in851.0 mb 0.00 in0.0 mm 0.00 in/hr0.0 mm/hr 0.00 in0.0 mm
03:05 AM 30.4°F-0.9°C 11.7°F-11.3°C 45% 4.0 mph WSW6.4 kmh WSW 5.4 mph8.7 kmh 25.13 in851.0 mb 0.00 in0.0 mm 0.00 in/hr0.0 mm/hr 0.00 in0.0 mm
03:10 AM 30.7°F-0.7°C 12.0°F-11.1°C 45% 4.0 mph WSW6.4 kmh WSW 6.3 mph10.1 kmh 25.13 in851.0 mb 0.00 in0.0 mm 0.00 in/hr0.0 mm/hr 0.00 in0.0 mm
03:15 AM 30.6°F-0.8°C 11.3°F-11.5°C 44% 4.0 mph WSW6.4 kmh WSW 5.8 mph9.3 kmh 25.13 in851.0 mb 0.00 in0.0 mm 0.00 in/hr0.0 mm/hr 0.00 in0.0 mm
03:20 AM 31.3°F-0.4°C 11.5°F-11.4°C 43% 4.0 mph WSW6.4 kmh WSW 8.3 mph13.4 kmh 25.13 in851.0 mb 0.00 in0.0 mm 0.00 in/hr0.0 mm/hr 0.00 in0.0 mm
03:25 AM 30.9°F-0.6°C 11.1°F-11.6°C 43% 5.0 mph WSW8.0 kmh WSW 7.4 mph11.9 kmh 25.13 in851.0 mb 0.00 in0.0 mm 0.00 in/hr0.0 mm/hr 0.00 in0.0 mm
03:30 AM 30.6°F-0.8°C 10.8°F-11.8°C 43% 3.0 mph WSW4.8 kmh WSW 4.9 mph7.9 kmh 25.13 in851.0 mb 0.00 in0.0 mm 0.00 in/hr0.0 mm/hr 0.00 in0.0 mm
03:35 AM 30.2°F-1.0°C 10.9°F-11.7°C 44% 2.0 mph WSW3.2 kmh WSW 4.0 mph6.4 kmh 25.13 in851.0 mb 0.00 in0.0 mm 0.00 in/hr0.0 mm/hr 0.00 in0.0 mm
03:40 AM 29.8°F-1.2°C 10.6°F-11.9°C 44% 2.0 mph WSW3.2 kmh WSW 4.0 mph6.4 kmh 25.13 in851.0 mb 0.00 in0.0 mm 0.00 in/hr0.0 mm/hr 0.00 in0.0 mm
03:45 AM 29.3°F-1.5°C 10.6°F-11.9°C 45% 1.0 mph WSW1.6 kmh WSW 4.0 mph6.4 kmh 25.13 in851.0 mb 0.00 in0.0 mm 0.00 in/hr0.0 mm/hr 0.00 in0.0 mm
03:50 AM 29.3°F-1.5°C 11.1°F-11.6°C 46% 2.0 mph WSW3.2 kmh WSW 4.9 mph7.9 kmh 25.13 in851.0 mb 0.00 in0.0 mm 0.00 in/hr0.0 mm/hr 0.00 in0.0 mm
03:55 AM 28.9°F-1.7°C 10.8°F-11.8°C 46% 2.0 mph WSW3.2 kmh WSW 3.1 mph5.0 kmh 25.13 in851.0 mb 0.00 in0.0 mm 0.00 in/hr0.0 mm/hr 0.00 in0.0 mm
04:00 AM 28.8°F-1.8°C 11.1°F-11.6°C 47% 1.0 mph WSW1.6 kmh WSW 3.6 mph5.8 kmh 25.13 in851.0 mb 0.00 in0.0 mm 0.00 in/hr0.0 mm/hr 0.00 in0.0 mm
04:05 AM 28.8°F-1.8°C 11.1°F-11.6°C 47% 1.0 mph WSW1.6 kmh WSW 3.1 mph5.0 kmh 25.13 in851.0 mb 0.00 in0.0 mm 0.00 in/hr0.0 mm/hr 0.00 in0.0 mm
04:10 AM 28.9°F-1.7°C 11.3°F-11.5°C 47% Calm Calm 3.1 mph5.0 kmh 25.13 in851.0 mb 0.00 in0.0 mm 0.00 in/hr0.0 mm/hr 0.00 in0.0 mm
04:15 AM 29.1°F-1.6°C 10.9°F-11.7°C 46% 1.0 mph WSW1.6 kmh WSW 4.0 mph6.4 kmh 25.13 in851.0 mb 0.00 in0.0 mm 0.00 in/hr0.0 mm/hr 0.00 in0.0 mm
04:20 AM 29.3°F-1.5°C 10.6°F-11.9°C 45% 2.0 mph WSW3.2 kmh WSW 4.0 mph6.4 kmh 25.13 in851.0 mb 0.00 in0.0 mm 0.00 in/hr0.0 mm/hr 0.00 in0.0 mm
04:25 AM 29.3°F-1.5°C 10.6°F-11.9°C 45% 2.0 mph W3.2 kmh W 6.3 mph10.1 kmh 25.13 in851.0 mb 0.00 in0.0 mm 0.00 in/hr0.0 mm/hr 0.00 in0.0 mm
04:30 AM 28.6°F-1.9°C 10.0°F-12.2°C 45% 2.0 mph W3.2 kmh W 3.6 mph5.8 kmh 25.13 in851.0 mb 0.00 in0.0 mm 0.00 in/hr0.0 mm/hr 0.00 in0.0 mm
04:35 AM 28.6°F-1.9°C 10.4°F-12.0°C 46% 2.0 mph W3.2 kmh W 4.0 mph6.4 kmh 25.13 in851.0 mb 0.00 in0.0 mm 0.00 in/hr0.0 mm/hr 0.00 in0.0 mm
04:40 AM 28.6°F-1.9°C 10.4°F-12.0°C 46% 2.0 mph W3.2 kmh W 3.6 mph5.8 kmh 25.13 in851.0 mb 0.00 in0.0 mm 0.00 in/hr0.0 mm/hr 0.00 in0.0 mm
04:46 AM 28.2°F-2.1°C 10.6°F-11.9°C 47% 2.0 mph W3.2 kmh W 3.6 mph5.8 kmh 25.13 in851.0 mb 0.00 in0.0 mm 0.00 in/hr0.0 mm/hr 0.00 in0.0 mm
04:51 AM 27.1°F-2.7°C 9.7°F-12.4°C 47% 3.0 mph WSW4.8 kmh WSW 6.3 mph10.1 kmh 25.13 in851.0 mb 0.00 in0.0 mm 0.00 in/hr0.0 mm/hr 0.00 in0.0 mm
04:56 AM 28.6°F-1.9°C 11.5°F-11.4°C 48% 4.0 mph ESE6.4 kmh ESE 6.7 mph10.8 kmh 25.13 in851.0 mb 0.00 in0.0 mm 0.00 in/hr0.0 mm/hr 0.00 in0.0 mm
05:01 AM 28.9°F-1.7°C 11.3°F-11.5°C 47% 4.0 mph ESE6.4 kmh ESE 5.8 mph9.3 kmh 25.13 in851.0 mb 0.00 in0.0 mm 0.00 in/hr0.0 mm/hr 0.00 in0.0 mm
05:06 AM 28.0°F-2.2°C 10.0°F-12.2°C 46% 4.0 mph SE6.4 kmh SE 6.3 mph10.1 kmh 25.13 in851.0 mb 0.00 in0.0 mm 0.00 in/hr0.0 mm/hr 0.00 in0.0 mm
05:11 AM 27.1°F-2.7°C 9.7°F-12.4°C 47% 4.0 mph SE6.4 kmh SE 5.4 mph8.7 kmh 25.13 in851.0 mb 0.00 in0.0 mm 0.00 in/hr0.0 mm/hr 0.00 in0.0 mm
05:16 AM 26.8°F-2.9°C 9.3°F-12.6°C 47% 4.0 mph SE6.4 kmh SE 4.5 mph7.2 kmh 25.13 in851.0 mb 0.00 in0.0 mm 0.00 in/hr0.0 mm/hr 0.00 in0.0 mm
05:21 AM 27.1°F-2.7°C 10.0°F-12.2°C 48% 3.0 mph SE4.8 kmh SE 4.9 mph7.9 kmh 25.13 in851.0 mb 0.00 in0.0 mm 0.00 in/hr0.0 mm/hr 0.00 in0.0 mm
05:26 AM 27.3°F-2.6°C 10.8°F-11.8°C 49% 2.0 mph SE3.2 kmh SE 4.5 mph7.2 kmh 25.13 in851.0 mb 0.00 in0.0 mm 0.00 in/hr0.0 mm/hr 0.00 in0.0 mm
05:31 AM 27.1°F-2.7°C 10.6°F-11.9°C 49% Calm Calm 2.7 mph4.3 kmh 25.13 in851.0 mb 0.00 in0.0 mm 0.00 in/hr0.0 mm/hr 0.00 in0.0 mm
05:36 AM 26.8°F-2.9°C 10.2°F-12.1°C 49% Calm Calm -- 25.13 in851.0 mb 0.00 in0.0 mm 0.00 in/hr0.0 mm/hr 0.00 in0.0 mm
05:41 AM 26.6°F-3.0°C 10.6°F-11.9°C 50% Calm Calm 3.1 mph5.0 kmh 25.13 in851.0 mb 0.00 in0.0 mm 0.00 in/hr0.0 mm/hr 0.00 in0.0 mm
05:46 AM 27.0°F-2.8°C 11.3°F-11.5°C 51% 1.0 mph SE1.6 kmh SE 4.9 mph7.9 kmh 25.13 in851.0 mb 0.00 in0.0 mm 0.00 in/hr0.0 mm/hr 0.00 in0.0 mm
05:51 AM 27.1°F-2.7°C 11.5°F-11.4°C 51% 3.0 mph SE4.8 kmh SE 6.3 mph10.1 kmh 25.13 in851.0 mb 0.00 in0.0 mm 0.00 in/hr0.0 mm/hr 0.00 in0.0 mm
05:56 AM 27.9°F-2.3°C 11.7°F-11.3°C 50% 4.0 mph ESE6.4 kmh ESE 5.8 mph9.3 kmh 25.13 in851.0 mb 0.00 in0.0 mm 0.00 in/hr0.0 mm/hr 0.00 in0.0 mm
06:01 AM 27.5°F-2.5°C 10.4°F-12.0°C 48% 4.0 mph SE6.4 kmh SE 6.7 mph10.8 kmh 25.13 in851.0 mb 0.00 in0.0 mm 0.00 in/hr0.0 mm/hr 0.00 in0.0 mm
06:06 AM 26.8°F-2.9°C 9.3°F-12.6°C 47% 4.0 mph SE6.4 kmh SE 5.4 mph8.7 kmh 25.13 in851.0 mb 0.00 in0.0 mm 0.00 in/hr0.0 mm/hr 0.00 in0.0 mm
06:11 AM 27.1°F-2.7°C 10.0°F-12.2°C 48% 4.0 mph SE6.4 kmh SE 5.4 mph8.7 kmh 25.13 in851.0 mb 0.00 in0.0 mm 0.00 in/hr0.0 mm/hr 0.00 in0.0 mm
06:16 AM 27.9°F-2.3°C 10.8°F-11.8°C 48% 4.0 mph SE6.4 kmh SE 6.7 mph10.8 kmh 25.13 in851.0 mb 0.00 in0.0 mm 0.00 in/hr0.0 mm/hr 0.00 in0.0 mm
06:21 AM 29.5°F-1.4°C 11.3°F-11.5°C 46% 5.0 mph SE8.0 kmh SE 6.9 mph11.1 kmh 25.13 in851.0 mb 0.00 in0.0 mm 0.00 in/hr0.0 mm/hr 0.00 in0.0 mm
06:26 AM 28.4°F-2.0°C 9.3°F-12.6°C 44% 5.0 mph SE8.0 kmh SE 7.8 mph12.6 kmh 25.13 in851.0 mb 0.00 in0.0 mm 0.00 in/hr0.0 mm/hr 0.00 in0.0 mm
06:31 AM 28.0°F-2.2°C 9.5°F-12.5°C 45% 5.0 mph SE8.0 kmh SE 6.3 mph10.1 kmh 25.13 in851.0 mb 0.00 in0.0 mm 0.00 in/hr0.0 mm/hr 0.00 in0.0 mm
06:36 AM 28.6°F-1.9°C 10.0°F-12.2°C 45% 5.0 mph SE8.0 kmh SE 6.9 mph11.1 kmh 25.13 in851.0 mb 0.00 in0.0 mm 0.00 in/hr0.0 mm/hr 0.00 in0.0 mm
06:41 AM 26.8°F-2.9°C 8.8°F-12.9°C 46% 5.0 mph SE8.0 kmh SE 6.3 mph10.1 kmh 25.13 in851.0 mb 0.00 in0.0 mm 0.00 in/hr0.0 mm/hr 0.00 in0.0 mm
06:46 AM 27.0°F-2.8°C 9.5°F-12.5°C 47% 5.0 mph SE8.0 kmh SE 6.9 mph11.1 kmh 25.13 in851.0 mb 0.00 in0.0 mm 0.00 in/hr0.0 mm/hr 0.00 in0.0 mm
06:51 AM 27.3°F-2.6°C 9.9°F-12.3°C 47% 5.0 mph SE8.0 kmh SE 5.8 mph9.3 kmh 25.13 in851.0 mb 0.00 in0.0 mm 0.00 in/hr0.0 mm/hr 0.00 in0.0 mm
06:56 AM 27.5°F-2.5°C 10.4°F-12.0°C 48% 5.0 mph SE8.0 kmh SE 6.7 mph10.8 kmh 25.13 in851.0 mb 0.00 in0.0 mm 0.00 in/hr0.0 mm/hr 0.00 in0.0 mm
07:01 AM 27.3°F-2.6°C 9.9°F-12.3°C 47% 4.0 mph SE6.4 kmh SE 4.5 mph7.2 kmh 25.13 in851.0 mb 0.00 in0.0 mm 0.00 in/hr0.0 mm/hr 0.00 in0.0 mm
07:06 AM 27.7°F-2.4°C 9.7°F-12.4°C 46% 4.0 mph SE6.4 kmh SE 6.9 mph11.1 kmh 25.13 in851.0 mb 0.00 in0.0 mm 0.00 in/hr0.0 mm/hr 0.00 in0.0 mm
07:11 AM 27.1°F-2.7°C 9.1°F-12.7°C 46% 4.0 mph SE6.4 kmh SE 6.3 mph10.1 kmh 25.13 in851.0 mb 0.00 in0.0 mm 0.00 in/hr0.0 mm/hr 0.00 in0.0 mm
07:16 AM 27.0°F-2.8°C 9.0°F-12.8°C 46% 4.0 mph SE6.4 kmh SE 4.0 mph6.4 kmh 25.13 in851.0 mb 0.00 in0.0 mm 0.00 in/hr0.0 mm/hr 0.00 in0.0 mm
07:21 AM 26.6°F-3.0°C 8.6°F-13.0°C 46% 4.0 mph SE6.4 kmh SE 6.7 mph10.8 kmh 25.13 in851.0 mb 0.00 in0.0 mm 0.00 in/hr0.0 mm/hr 0.00 in0.0 mm
07:26 AM 27.1°F-2.7°C 9.1°F-12.7°C 46% 5.0 mph ESE8.0 kmh ESE 7.8 mph12.6 kmh 25.13 in851.0 mb 0.00 in0.0 mm 0.00 in/hr0.0 mm/hr 0.00 in0.0 mm
07:31 AM 27.1°F-2.7°C 10.9°F-11.7°C 50% 6.0 mph E9.7 kmh E 8.3 mph13.4 kmh 25.13 in851.0 mb 0.00 in0.0 mm 0.00 in/hr0.0 mm/hr 0.00 in0.0 mm
07:36 AM 27.5°F-2.5°C 11.8°F-11.2°C 51% 5.0 mph E8.0 kmh E 6.7 mph10.8 kmh 25.13 in851.0 mb 0.00 in0.0 mm 0.00 in/hr0.0 mm/hr 0.00 in0.0 mm
07:41 AM 27.3°F-2.6°C 11.1°F-11.6°C 50% 5.0 mph E8.0 kmh E 7.4 mph11.9 kmh 25.13 in851.0 mb 0.00 in0.0 mm 0.00 in/hr0.0 mm/hr 0.00 in0.0 mm
07:46 AM 27.0°F-2.8°C 11.3°F-11.5°C 51% 5.0 mph E8.0 kmh E 7.4 mph11.9 kmh 25.13 in851.0 mb 0.00 in0.0 mm 0.00 in/hr0.0 mm/hr 0.00 in0.0 mm
07:51 AM 26.6°F-3.0°C 10.9°F-11.7°C 51% 4.0 mph E6.4 kmh E 6.3 mph10.1 kmh 25.13 in851.0 mb 0.00 in0.0 mm 0.00 in/hr0.0 mm/hr 0.00 in0.0 mm
07:56 AM 26.1°F-3.3°C 10.4°F-12.0°C 51% 4.0 mph E6.4 kmh E 5.8 mph9.3 kmh 25.13 in851.0 mb 0.00 in0.0 mm 0.00 in/hr0.0 mm/hr 0.00 in0.0 mm
08:01 AM 25.5°F-3.6°C 10.4°F-12.0°C 52% 3.0 mph E4.8 kmh E 5.4 mph8.7 kmh 25.13 in851.0 mb 0.00 in0.0 mm 0.00 in/hr0.0 mm/hr 0.00 in0.0 mm
08:06 AM 25.3°F-3.7°C 10.2°F-12.1°C 52% 2.0 mph ESE3.2 kmh ESE 4.9 mph7.9 kmh 25.13 in851.0 mb 0.00 in0.0 mm 0.00 in/hr0.0 mm/hr 0.00 in0.0 mm
08:11 AM 24.6°F-4.1°C 10.0°F-12.2°C 53% 2.0 mph ESE3.2 kmh ESE 5.4 mph8.7 kmh 25.13 in851.0 mb 0.00 in0.0 mm 0.00 in/hr0.0 mm/hr 0.00 in0.0 mm
08:16 AM 24.6°F-4.1°C 10.0°F-12.2°C 53% 2.0 mph ESE3.2 kmh ESE 4.0 mph6.4 kmh 25.13 in851.0 mb 0.00 in0.0 mm 0.00 in/hr0.0 mm/hr 0.00 in0.0 mm
08:21 AM 24.6°F-4.1°C 10.4°F-12.0°C 54% 1.0 mph ESE1.6 kmh ESE 2.7 mph4.3 kmh 25.13 in851.0 mb 0.00 in0.0 mm 0.00 in/hr0.0 mm/hr 0.00 in0.0 mm
08:26 AM 24.1°F-4.4°C 9.9°F-12.3°C 54% Calm Calm -- 25.13 in851.0 mb 0.00 in0.0 mm 0.00 in/hr0.0 mm/hr 0.00 in0.0 mm
08:32 AM 24.1°F-4.4°C 10.2°F-12.1°C 55% Calm Calm 3.1 mph5.0 kmh 25.13 in851.0 mb 0.00 in0.0 mm 0.00 in/hr0.0 mm/hr 0.00 in0.0 mm
08:37 AM 25.0°F-3.9°C 11.1°F-11.6°C 55% 1.0 mph E1.6 kmh E 6.3 mph10.1 kmh 25.13 in851.0 mb 0.00 in0.0 mm 0.00 in/hr0.0 mm/hr 0.00 in0.0 mm
08:42 AM 24.8°F-4.0°C 10.9°F-11.7°C 55% 4.0 mph E6.4 kmh E 9.2 mph14.8 kmh 25.13 in851.0 mb 0.00 in0.0 mm 0.00 in/hr0.0 mm/hr 0.00 in0.0 mm
08:47 AM 24.6°F-4.1°C 10.8°F-11.8°C 55% 6.0 mph E9.7 kmh E 8.3 mph13.4 kmh 25.13 in851.0 mb 0.00 in0.0 mm 0.00 in/hr0.0 mm/hr 0.00 in0.0 mm
08:52 AM 24.6°F-4.1°C 11.1°F-11.6°C 56% 6.0 mph E9.7 kmh E 6.9 mph11.1 kmh 25.13 in851.0 mb 0.00 in0.0 mm 0.00 in/hr0.0 mm/hr 0.00 in0.0 mm
08:57 AM 25.2°F-3.8°C 11.7°F-11.3°C 56% 6.0 mph E9.7 kmh E 6.9 mph11.1 kmh 25.13 in851.0 mb 0.00 in0.0 mm 0.00 in/hr0.0 mm/hr 0.00 in0.0 mm
09:02 AM 25.9°F-3.4°C 12.0°F-11.1°C 55% 5.0 mph E8.0 kmh E 6.9 mph11.1 kmh 25.13 in851.0 mb 0.00 in0.0 mm 0.00 in/hr0.0 mm/hr 0.00 in0.0 mm
09:07 AM 26.4°F-3.1°C 12.0°F-11.1°C 54% 5.0 mph ESE8.0 kmh ESE 6.3 mph10.1 kmh 25.13 in851.0 mb 0.00 in0.0 mm 0.00 in/hr0.0 mm/hr 0.00 in0.0 mm
09:12 AM 26.8°F-2.9°C 12.4°F-10.9°C 54% 4.0 mph SE6.4 kmh SE 5.8 mph9.3 kmh 25.13 in851.0 mb 0.00 in0.0 mm 0.00 in/hr0.0 mm/hr 0.00 in0.0 mm
09:17 AM 27.1°F-2.7°C 12.4°F-10.9°C 53% 3.0 mph SE4.8 kmh SE 5.4 mph8.7 kmh 25.13 in851.0 mb 0.00 in0.0 mm 0.00 in/hr0.0 mm/hr 0.00 in0.0 mm
09:22 AM 27.5°F-2.5°C 12.6°F-10.8°C 53% 3.0 mph SE4.8 kmh SE 5.4 mph8.7 kmh 25.13 in851.0 mb 0.00 in0.0 mm 0.00 in/hr0.0 mm/hr 0.00 in0.0 mm
09:27 AM 28.4°F-2.0°C 13.1°F-10.5°C 52% 3.0 mph SE4.8 kmh SE 5.4 mph8.7 kmh 25.13 in851.0 mb 0.00 in0.0 mm 0.00 in/hr0.0 mm/hr 0.00 in0.0 mm
09:32 AM 28.6°F-1.9°C 12.7°F-10.7°C 51% 3.0 mph SE4.8 kmh SE 5.4 mph8.7 kmh 25.13 in851.0 mb 0.00 in0.0 mm 0.00 in/hr0.0 mm/hr 0.00 in0.0 mm
09:37 AM 29.1°F-1.6°C 13.3°F-10.4°C 51% 4.0 mph SE6.4 kmh SE 5.8 mph9.3 kmh 25.13 in851.0 mb 0.00 in0.0 mm 0.00 in/hr0.0 mm/hr 0.00 in0.0 mm
09:42 AM 28.9°F-1.7°C 11.7°F-11.3°C 48% 5.0 mph SE8.0 kmh SE 8.3 mph13.4 kmh 25.13 in851.0 mb 0.00 in0.0 mm 0.00 in/hr0.0 mm/hr 0.00 in0.0 mm
09:47 AM 28.9°F-1.7°C 11.3°F-11.5°C 47% 6.0 mph SE9.7 kmh SE 9.2 mph14.8 kmh 25.13 in851.0 mb 0.00 in0.0 mm 0.00 in/hr0.0 mm/hr 0.00 in0.0 mm
09:52 AM 29.7°F-1.3°C 11.8°F-11.2°C 47% 6.0 mph ESE9.7 kmh ESE 9.2 mph14.8 kmh 25.13 in851.0 mb 0.00 in0.0 mm 0.00 in/hr0.0 mm/hr 0.00 in0.0 mm
09:57 AM 29.8°F-1.2°C 12.0°F-11.1°C 47% 6.0 mph ESE9.7 kmh ESE 8.7 mph14.0 kmh 25.13 in851.0 mb 0.00 in0.0 mm 0.00 in/hr0.0 mm/hr 0.00 in0.0 mm
10:02 AM 30.0°F-1.1°C 11.8°F-11.2°C 46% 5.0 mph ESE8.0 kmh ESE 6.9 mph11.1 kmh 25.13 in851.0 mb 0.00 in0.0 mm 0.00 in/hr0.0 mm/hr 0.00 in0.0 mm
10:07 AM 30.6°F-0.8°C 11.3°F-11.5°C 44% 4.0 mph SE6.4 kmh SE 6.7 mph10.8 kmh 25.13 in851.0 mb 0.00 in0.0 mm 0.00 in/hr0.0 mm/hr 0.00 in0.0 mm
10:12 AM 31.3°F-0.4°C 11.5°F-11.4°C 43% 3.0 mph SE4.8 kmh SE 5.4 mph8.7 kmh 25.13 in851.0 mb 0.00 in0.0 mm 0.00 in/hr0.0 mm/hr 0.00 in0.0 mm
10:17 AM 32.2°F0.1°C 12.2°F-11.0°C 43% 2.0 mph SSE3.2 kmh SSE 5.4 mph8.7 kmh 25.13 in851.0 mb 0.00 in0.0 mm 0.00 in/hr0.0 mm/hr 0.00 in0.0 mm
10:22 AM 33.1°F0.6°C 13.1°F-10.5°C 43% 3.0 mph SE4.8 kmh SE 5.8 mph9.3 kmh 25.13 in851.0 mb 0.00 in0.0 mm 0.00 in/hr0.0 mm/hr 0.00 in0.0 mm
10:27 AM 33.1°F0.6°C 12.0°F-11.1°C 41% 4.0 mph SE6.4 kmh SE 6.7 mph10.8 kmh 25.13 in851.0 mb 0.00 in0.0 mm 0.00 in/hr0.0 mm/hr 0.00 in0.0 mm
10:32 AM 33.1°F0.6°C 12.0°F-11.1°C 41% 4.0 mph SE6.4 kmh SE 6.9 mph11.1 kmh 25.13 in851.0 mb 0.00 in0.0 mm 0.00 in/hr0.0 mm/hr 0.00 in0.0 mm
10:37 AM 34.2°F1.2°C 12.9°F-10.6°C 41% 4.0 mph SSE6.4 kmh SSE 6.9 mph11.1 kmh 25.13 in851.0 mb 0.00 in0.0 mm 0.00 in/hr0.0 mm/hr 0.00 in0.0 mm
10:43 AM 34.0°F1.1°C 12.2°F-11.0°C 40% 4.0 mph SSE6.4 kmh SSE 8.3 mph13.4 kmh 25.13 in851.0 mb 0.00 in0.0 mm 0.00 in/hr0.0 mm/hr 0.00 in0.0 mm
10:48 AM 35.2°F1.8°C 13.3°F-10.4°C 40% 5.0 mph S8.0 kmh S 7.8 mph12.6 kmh 25.13 in851.0 mb 0.00 in0.0 mm 0.00 in/hr0.0 mm/hr 0.00 in0.0 mm
10:53 AM 35.6°F2.0°C 13.1°F-10.5°C 39% 3.0 mph S4.8 kmh S 4.9 mph7.9 kmh 25.13 in851.0 mb 0.00 in0.0 mm 0.00 in/hr0.0 mm/hr 0.00 in0.0 mm
10:58 AM 36.3°F2.4°C 13.8°F-10.1°C 39% 3.0 mph SE4.8 kmh SE 8.7 mph14.0 kmh 25.13 in851.0 mb 0.00 in0.0 mm 0.00 in/hr0.0 mm/hr 0.00 in0.0 mm
11:03 AM 36.9°F2.7°C 13.1°F-10.5°C 37% 5.0 mph ESE8.0 kmh ESE 8.7 mph14.0 kmh 25.13 in851.0 mb 0.00 in0.0 mm 0.00 in/hr0.0 mm/hr 0.00 in0.0 mm
11:08 AM 36.7°F2.6°C 12.2°F-11.0°C 36% 7.0 mph ESE11.3 kmh ESE 13.0 mph20.9 kmh 25.13 in851.0 mb 0.00 in0.0 mm 0.00 in/hr0.0 mm/hr 0.00 in0.0 mm
11:13 AM 36.1°F2.3°C 11.1°F-11.6°C 35% 8.0 mph ESE12.9 kmh ESE 16.3 mph26.2 kmh 25.13 in851.0 mb 0.00 in0.0 mm 0.00 in/hr0.0 mm/hr 0.00 in0.0 mm
11:18 AM 37.4°F3.0°C 12.2°F-11.0°C 35% 9.0 mph E14.5 kmh E 15.4 mph24.8 kmh 25.13 in851.0 mb 0.00 in0.0 mm 0.00 in/hr0.0 mm/hr 0.00 in0.0 mm
11:23 AM 35.8°F2.1°C 10.2°F-12.1°C 34% 10.0 mph ESE16.1 kmh ESE 16.8 mph27.0 kmh 25.10 in850.0 mb 0.00 in0.0 mm 0.00 in/hr0.0 mm/hr 0.00 in0.0 mm
11:28 AM 35.8°F2.1°C 10.2°F-12.1°C 34% 10.0 mph ESE16.1 kmh ESE 13.0 mph20.9 kmh 25.10 in850.0 mb 0.00 in0.0 mm 0.00 in/hr0.0 mm/hr 0.00 in0.0 mm
11:33 AM 35.6°F2.0°C 10.0°F-12.2°C 34% 10.0 mph E16.1 kmh E 15.9 mph25.6 kmh 25.10 in850.0 mb 0.00 in0.0 mm 0.00 in/hr0.0 mm/hr 0.00 in0.0 mm
11:38 AM 36.3°F2.4°C 10.6°F-11.9°C 34% 10.0 mph E16.1 kmh E 14.3 mph23.0 kmh 25.10 in850.0 mb 0.00 in0.0 mm 0.00 in/hr0.0 mm/hr 0.00 in0.0 mm
11:43 AM 36.9°F2.7°C 10.4°F-12.0°C 33% 9.0 mph ESE14.5 kmh ESE 14.3 mph23.0 kmh 25.10 in850.0 mb 0.00 in0.0 mm 0.00 in/hr0.0 mm/hr 0.00 in0.0 mm
11:48 AM 36.3°F2.4°C 10.0°F-12.2°C 33% 9.0 mph ESE14.5 kmh ESE 14.8 mph23.8 kmh 25.10 in850.0 mb 0.00 in0.0 mm 0.00 in/hr0.0 mm/hr 0.00 in0.0 mm
11:53 AM 37.2°F2.9°C 10.8°F-11.8°C 33% 9.0 mph ESE14.5 kmh ESE 13.4 mph21.6 kmh 25.10 in850.0 mb 0.00 in0.0 mm 0.00 in/hr0.0 mm/hr 0.00 in0.0 mm
11:58 AM 37.6°F3.1°C 10.4°F-12.0°C 32% 9.0 mph ESE14.5 kmh ESE 14.8 mph23.8 kmh 25.10 in850.0 mb 0.00 in0.0 mm 0.00 in/hr0.0 mm/hr 0.00 in0.0 mm
12:03 PM 38.7°F3.7°C 11.3°F-11.5°C 32% 8.0 mph ESE12.9 kmh ESE 11.6 mph18.7 kmh 25.10 in850.0 mb 0.00 in0.0 mm 0.00 in/hr0.0 mm/hr 0.00 in0.0 mm
12:08 PM 38.8°F3.8°C 10.8°F-11.8°C 31% 8.0 mph ESE12.9 kmh ESE 13.4 mph21.6 kmh 25.10 in850.0 mb 0.00 in0.0 mm 0.00 in/hr0.0 mm/hr 0.00 in0.0 mm
12:13 PM 39.7°F4.3°C 11.7°F-11.3°C 31% 8.0 mph SE12.9 kmh SE 11.0 mph17.7 kmh 25.10 in850.0 mb 0.00 in0.0 mm 0.00 in/hr0.0 mm/hr 0.00 in0.0 mm
12:18 PM 39.4°F4.1°C 10.6°F-11.9°C 30% 7.0 mph ESE11.3 kmh ESE 11.0 mph17.7 kmh 25.10 in850.0 mb 0.00 in0.0 mm 0.00 in/hr0.0 mm/hr 0.00 in0.0 mm
12:23 PM 39.9°F4.4°C 10.9°F-11.7°C 30% 8.0 mph ESE12.9 kmh ESE 13.4 mph21.6 kmh 25.10 in850.0 mb 0.00 in0.0 mm 0.00 in/hr0.0 mm/hr 0.00 in0.0 mm
12:28 PM 39.9°F4.4°C 10.9°F-11.7°C 30% 7.0 mph SE11.3 kmh SE 12.1 mph19.5 kmh 25.10 in850.0 mb 0.00 in0.0 mm 0.00 in/hr0.0 mm/hr 0.00 in0.0 mm
12:33 PM 40.8°F4.9°C 11.1°F-11.6°C 29% 7.0 mph SE11.3 kmh SE 12.5 mph20.1 kmh 25.10 in850.0 mb 0.00 in0.0 mm 0.00 in/hr0.0 mm/hr 0.00 in0.0 mm
12:38 PM 41.0°F5.0°C 11.1°F-11.6°C 29% 7.0 mph ESE11.3 kmh ESE 11.0 mph17.7 kmh 25.10 in850.0 mb 0.00 in0.0 mm 0.00 in/hr0.0 mm/hr 0.00 in0.0 mm
12:43 PM 40.6°F4.8°C 10.9°F-11.7°C 29% 7.0 mph E11.3 kmh E 9.2 mph14.8 kmh 25.10 in850.0 mb 0.00 in0.0 mm 0.00 in/hr0.0 mm/hr 0.00 in0.0 mm
12:48 PM 41.9°F5.5°C 12.0°F-11.1°C 29% 6.0 mph E9.7 kmh E 11.2 mph18.0 kmh 25.10 in850.0 mb 0.00 in0.0 mm 0.00 in/hr0.0 mm/hr 0.00 in0.0 mm
12:53 PM 42.1°F5.6°C 11.3°F-11.5°C 28% 6.0 mph SE9.7 kmh SE 10.1 mph16.3 kmh 25.07 in849.0 mb 0.00 in0.0 mm 0.00 in/hr0.0 mm/hr 0.00 in0.0 mm
12:58 PM 43.0°F6.1°C 12.2°F-11.0°C 28% 6.0 mph SE9.7 kmh SE 10.5 mph16.9 kmh 25.07 in849.0 mb 0.00 in0.0 mm 0.00 in/hr0.0 mm/hr 0.00 in0.0 mm
01:03 PM 43.0°F6.1°C 12.2°F-11.0°C 28% 7.0 mph SE11.3 kmh SE 9.2 mph14.8 kmh 25.07 in849.0 mb 0.00 in0.0 mm 0.00 in/hr0.0 mm/hr 0.00 in0.0 mm
01:08 PM 43.2°F6.2°C 12.4°F-10.9°C 28% 6.0 mph ESE9.7 kmh ESE 8.3 mph13.4 kmh 25.07 in849.0 mb 0.00 in0.0 mm 0.00 in/hr0.0 mm/hr 0.00 in0.0 mm
01:13 PM 44.1°F6.7°C 12.2°F-11.0°C 27% 4.0 mph SE6.4 kmh SE 7.4 mph11.9 kmh 25.07 in849.0 mb 0.00 in0.0 mm 0.00 in/hr0.0 mm/hr 0.00 in0.0 mm
01:18 PM 44.6°F7.0°C 10.9°F-11.7°C 25% 4.0 mph SE6.4 kmh SE 10.1 mph16.3 kmh 25.07 in849.0 mb 0.00 in0.0 mm 0.00 in/hr0.0 mm/hr 0.00 in0.0 mm
01:23 PM 45.1°F7.3°C 11.5°F-11.4°C 25% 4.0 mph ESE6.4 kmh ESE 5.8 mph9.3 kmh 25.07 in849.0 mb 0.00 in0.0 mm 0.00 in/hr0.0 mm/hr 0.00 in0.0 mm
01:28 PM 44.8°F7.1°C 6.3°F-14.3°C 20% 4.0 mph ESE6.4 kmh ESE 8.7 mph14.0 kmh 25.07 in849.0 mb 0.00 in0.0 mm 0.00 in/hr0.0 mm/hr 0.00 in0.0 mm
01:33 PM 44.8°F7.1°C 6.3°F-14.3°C 20% 4.0 mph SE6.4 kmh SE 7.8 mph12.6 kmh 25.07 in849.0 mb 0.00 in0.0 mm 0.00 in/hr0.0 mm/hr 0.00 in0.0 mm
01:38 PM 45.0°F7.2°C 6.3°F-14.3°C 20% 3.0 mph ESE4.8 kmh ESE 7.4 mph11.9 kmh 25.04 in848.0 mb 0.00 in0.0 mm 0.00 in/hr0.0 mm/hr 0.00 in0.0 mm
01:43 PM 45.7°F7.6°C 5.9°F-14.5°C 19% 4.0 mph SE6.4 kmh SE 6.7 mph10.8 kmh 25.04 in848.0 mb 0.00 in0.0 mm 0.00 in/hr0.0 mm/hr 0.00 in0.0 mm
01:48 PM 46.0°F7.8°C 3.7°F-15.7°C 17% 4.0 mph S6.4 kmh S 6.9 mph11.1 kmh 25.04 in848.0 mb 0.00 in0.0 mm 0.00 in/hr0.0 mm/hr 0.00 in0.0 mm
01:53 PM 45.7°F7.6°C 3.4°F-15.9°C 17% 3.0 mph S4.8 kmh S 6.9 mph11.1 kmh 25.04 in848.0 mb 0.00 in0.0 mm 0.00 in/hr0.0 mm/hr 0.00 in0.0 mm
01:58 PM 44.8°F7.1°C 2.7°F-16.3°C 17% 4.0 mph ESE6.4 kmh ESE 9.6 mph15.4 kmh 25.04 in848.0 mb 0.00 in0.0 mm 0.00 in/hr0.0 mm/hr 0.00 in0.0 mm
02:03 PM 44.4°F6.9°C 2.3°F-16.5°C 17% 5.0 mph NE8.0 kmh NE 8.7 mph14.0 kmh 25.04 in848.0 mb 0.00 in0.0 mm 0.00 in/hr0.0 mm/hr 0.00 in0.0 mm
02:08 PM 44.1°F6.7°C 2.1°F-16.6°C 17% 6.0 mph NE9.7 kmh NE 13.4 mph21.6 kmh 25.04 in848.0 mb 0.00 in0.0 mm 0.00 in/hr0.0 mm/hr 0.00 in0.0 mm
02:13 PM 44.6°F7.0°C 2.5°F-16.4°C 17% 4.0 mph NE6.4 kmh NE 5.4 mph8.7 kmh 25.04 in848.0 mb 0.00 in0.0 mm 0.00 in/hr0.0 mm/hr 0.00 in0.0 mm
02:18 PM 45.3°F7.4°C 3.0°F-16.1°C 17% 3.0 mph NNE4.8 kmh NNE 5.8 mph9.3 kmh 25.04 in848.0 mb 0.00 in0.0 mm 0.00 in/hr0.0 mm/hr 0.00 in0.0 mm
02:23 PM 45.3°F7.4°C 3.0°F-16.1°C 17% 3.0 mph NNE4.8 kmh NNE 7.8 mph12.6 kmh 25.04 in848.0 mb 0.00 in0.0 mm 0.00 in/hr0.0 mm/hr 0.00 in0.0 mm
02:28 PM 45.3°F7.4°C 3.0°F-16.1°C 17% 4.0 mph NNE6.4 kmh NNE 9.6 mph15.4 kmh 25.04 in848.0 mb 0.00 in0.0 mm 0.00 in/hr0.0 mm/hr 0.00 in0.0 mm
02:33 PM 45.1°F7.3°C 3.0°F-16.1°C 17% 5.0 mph NNE8.0 kmh NNE 11.0 mph17.7 kmh 25.04 in848.0 mb 0.00 in0.0 mm 0.00 in/hr0.0 mm/hr 0.00 in0.0 mm
02:38 PM 44.6°F7.0°C 2.5°F-16.4°C 17% 6.0 mph NE9.7 kmh NE 10.1 mph16.3 kmh 25.01 in846.9 mb 0.00 in0.0 mm 0.00 in/hr0.0 mm/hr 0.00 in0.0 mm
02:43 PM 45.0°F7.2°C 2.8°F-16.2°C 17% 5.0 mph NE8.0 kmh NE 7.8 mph12.6 kmh 25.01 in846.9 mb 0.00 in0.0 mm 0.00 in/hr0.0 mm/hr 0.00 in0.0 mm
02:48 PM 45.5°F7.5°C 3.2°F-16.0°C 17% 4.0 mph E6.4 kmh E 6.9 mph11.1 kmh 25.01 in846.9 mb 0.00 in0.0 mm 0.00 in/hr0.0 mm/hr 0.00 in0.0 mm
02:58 PM 46.8°F8.2°C 4.3°F-15.4°C 17% 3.0 mph SW4.8 kmh SW 4.5 mph7.2 kmh 25.01 in846.9 mb 0.00 in0.0 mm 0.00 in/hr0.0 mm/hr 0.00 in0.0 mm
03:03 PM 46.8°F8.2°C 4.3°F-15.4°C 17% 5.0 mph SW8.0 kmh SW 14.8 mph23.8 kmh 25.01 in846.9 mb 0.00 in0.0 mm 0.00 in/hr0.0 mm/hr 0.00 in0.0 mm
03:08 PM 46.4°F8.0°C 3.9°F-15.6°C 17% 6.0 mph NNW9.7 kmh NNW 10.1 mph16.3 kmh 25.01 in846.9 mb 0.00 in0.0 mm 0.00 in/hr0.0 mm/hr 0.00 in0.0 mm
03:13 PM 46.2°F7.9°C 3.9°F-15.6°C 17% 5.0 mph N8.0 kmh N 8.3 mph13.4 kmh 25.01 in846.9 mb 0.00 in0.0 mm 0.00 in/hr0.0 mm/hr 0.00 in0.0 mm
03:18 PM 46.4°F8.0°C 3.9°F-15.6°C 17% 4.0 mph NE6.4 kmh NE 9.2 mph14.8 kmh 25.01 in846.9 mb 0.00 in0.0 mm 0.00 in/hr0.0 mm/hr 0.00 in0.0 mm
03:23 PM 46.6°F8.1°C 4.1°F-15.5°C 17% 6.0 mph N9.7 kmh N 10.1 mph16.3 kmh 25.01 in846.9 mb 0.00 in0.0 mm 0.00 in/hr0.0 mm/hr 0.00 in0.0 mm
03:28 PM 46.6°F8.1°C 4.1°F-15.5°C 17% 7.0 mph NW11.3 kmh NW 9.6 mph15.4 kmh 25.01 in846.9 mb 0.00 in0.0 mm 0.00 in/hr0.0 mm/hr 0.00 in0.0 mm
03:38 PM 47.1°F8.4°C 4.6°F-15.2°C 17% 8.0 mph NW12.9 kmh NW 11.0 mph17.7 kmh 25.01 in846.9 mb 0.00 in0.0 mm 0.00 in/hr0.0 mm/hr 0.00 in0.0 mm
03:44 PM 46.9°F8.3°C 4.5°F-15.3°C 17% 7.0 mph NW11.3 kmh NW 11.0 mph17.7 kmh 25.01 in846.9 mb 0.00 in0.0 mm 0.00 in/hr0.0 mm/hr 0.00 in0.0 mm
03:49 PM 46.2°F7.9°C 3.9°F-15.6°C 17% 6.0 mph N9.7 kmh N 8.3 mph13.4 kmh 25.01 in846.9 mb 0.00 in0.0 mm 0.00 in/hr0.0 mm/hr 0.00 in0.0 mm
03:54 PM 46.8°F8.2°C 4.3°F-15.4°C 17% 5.0 mph NNW8.0 kmh NNW 10.1 mph16.3 kmh 25.01 in846.9 mb 0.00 in0.0 mm 0.00 in/hr0.0 mm/hr 0.00 in0.0 mm
03:59 PM 46.2°F7.9°C 3.9°F-15.6°C 17% 7.0 mph NW11.3 kmh NW 11.6 mph18.7 kmh 25.01 in846.9 mb 0.00 in0.0 mm 0.00 in/hr0.0 mm/hr 0.00 in0.0 mm
04:04 PM 46.4°F8.0°C 3.9°F-15.6°C 17% 7.0 mph NW11.3 kmh NW 10.1 mph16.3 kmh 25.01 in846.9 mb 0.00 in0.0 mm 0.00 in/hr0.0 mm/hr 0.00 in0.0 mm
04:09 PM 46.6°F8.1°C 4.1°F-15.5°C 17% 6.0 mph WNW9.7 kmh WNW 9.6 mph15.4 kmh 24.98 in845.9 mb 0.00 in0.0 mm 0.00 in/hr0.0 mm/hr 0.00 in0.0 mm
04:14 PM 46.6°F8.1°C 4.1°F-15.5°C 17% 5.0 mph W8.0 kmh W 6.7 mph10.8 kmh 24.98 in845.9 mb 0.00 in0.0 mm 0.00 in/hr0.0 mm/hr 0.00 in0.0 mm
04:19 PM 46.8°F8.2°C 4.3°F-15.4°C 17% 4.0 mph NW6.4 kmh NW 6.3 mph10.1 kmh 24.98 in845.9 mb 0.00 in0.0 mm 0.00 in/hr0.0 mm/hr 0.00 in0.0 mm
04:24 PM 46.6°F8.1°C 4.1°F-15.5°C 17% 4.0 mph N6.4 kmh N 10.1 mph16.3 kmh 24.98 in845.9 mb 0.00 in0.0 mm 0.00 in/hr0.0 mm/hr 0.00 in0.0 mm
04:29 PM 46.6°F8.1°C 4.1°F-15.5°C 17% 5.0 mph N8.0 kmh N 9.6 mph15.4 kmh 24.98 in845.9 mb 0.00 in0.0 mm 0.00 in/hr0.0 mm/hr 0.00 in0.0 mm
04:34 PM 46.8°F8.2°C 4.3°F-15.4°C 17% 6.0 mph N9.7 kmh N 10.1 mph16.3 kmh 24.98 in845.9 mb 0.00 in0.0 mm 0.00 in/hr0.0 mm/hr 0.00 in0.0 mm
04:39 PM 46.8°F8.2°C 4.3°F-15.4°C 17% 4.0 mph NW6.4 kmh NW 6.9 mph11.1 kmh 24.98 in845.9 mb 0.00 in0.0 mm 0.00 in/hr0.0 mm/hr 0.00 in0.0 mm
04:44 PM 46.2°F7.9°C 3.9°F-15.6°C 17% 3.0 mph NW4.8 kmh NW 6.3 mph10.1 kmh 24.98 in845.9 mb 0.00 in0.0 mm 0.00 in/hr0.0 mm/hr 0.00 in0.0 mm
04:49 PM 46.2°F7.9°C 3.9°F-15.6°C 17% 4.0 mph N6.4 kmh N 7.8 mph12.6 kmh 24.98 in845.9 mb 0.00 in0.0 mm 0.00 in/hr0.0 mm/hr 0.00 in0.0 mm
04:54 PM 46.8°F8.2°C 4.3°F-15.4°C 17% 5.0 mph N8.0 kmh N 7.4 mph11.9 kmh 24.98 in845.9 mb 0.00 in0.0 mm 0.00 in/hr0.0 mm/hr 0.00 in0.0 mm
04:59 PM 46.8°F8.2°C 4.3°F-15.4°C 17% 5.0 mph N8.0 kmh N 9.2 mph14.8 kmh 24.98 in845.9 mb 0.00 in0.0 mm 0.00 in/hr0.0 mm/hr 0.00 in0.0 mm
05:04 PM 46.6°F8.1°C 4.1°F-15.5°C 17% 5.0 mph NNW8.0 kmh NNW 10.1 mph16.3 kmh 24.98 in845.9 mb 0.00 in0.0 mm 0.00 in/hr0.0 mm/hr 0.00 in0.0 mm
05:09 PM 46.4°F8.0°C 3.9°F-15.6°C 17% 6.0 mph NNW9.7 kmh NNW 8.7 mph14.0 kmh 24.98 in845.9 mb 0.00 in0.0 mm 0.00 in/hr0.0 mm/hr 0.00 in0.0 mm
05:14 PM 46.8°F8.2°C 4.3°F-15.4°C 17% 4.0 mph NW6.4 kmh NW 10.1 mph16.3 kmh 24.98 in845.9 mb 0.00 in0.0 mm 0.00 in/hr0.0 mm/hr 0.00 in0.0 mm
05:19 PM 46.6°F8.1°C 4.1°F-15.5°C 17% 4.0 mph NW6.4 kmh NW 7.4 mph11.9 kmh 24.98 in845.9 mb 0.00 in0.0 mm 0.00 in/hr0.0 mm/hr 0.00 in0.0 mm
05:24 PM 46.6°F8.1°C 4.1°F-15.5°C 17% 5.0 mph NW8.0 kmh NW 7.8 mph12.6 kmh 24.98 in845.9 mb 0.00 in0.0 mm 0.00 in/hr0.0 mm/hr 0.00 in0.0 mm
05:29 PM 46.9°F8.3°C 4.5°F-15.3°C 17% 5.0 mph WNW8.0 kmh WNW 10.5 mph16.9 kmh 24.98 in845.9 mb 0.00 in0.0 mm 0.00 in/hr0.0 mm/hr 0.00 in0.0 mm
05:34 PM 46.6°F8.1°C 4.1°F-15.5°C 17% 7.0 mph WNW11.3 kmh WNW 10.5 mph16.9 kmh 24.98 in845.9 mb 0.00 in0.0 mm 0.00 in/hr0.0 mm/hr 0.00 in0.0 mm
05:39 PM 46.4°F8.0°C 3.9°F-15.6°C 17% 7.0 mph WNW11.3 kmh WNW 9.2 mph14.8 kmh 24.98 in845.9 mb 0.00 in0.0 mm 0.00 in/hr0.0 mm/hr 0.00 in0.0 mm
05:44 PM 45.9°F7.7°C 3.6°F-15.8°C 17% 7.0 mph WNW11.3 kmh WNW 10.1 mph16.3 kmh 24.98 in845.9 mb 0.00 in0.0 mm 0.00 in/hr0.0 mm/hr 0.00 in0.0 mm
05:49 PM 45.7°F7.6°C 3.4°F-15.9°C 17% 7.0 mph WNW11.3 kmh WNW 9.6 mph15.4 kmh 24.98 in845.9 mb 0.00 in0.0 mm 0.00 in/hr0.0 mm/hr 0.00 in0.0 mm
05:54 PM 45.7°F7.6°C 3.4°F-15.9°C 17% 6.0 mph WNW9.7 kmh WNW 6.9 mph11.1 kmh 24.98 in845.9 mb 0.00 in0.0 mm 0.00 in/hr0.0 mm/hr 0.00 in0.0 mm
05:59 PM 45.5°F7.5°C 3.2°F-16.0°C 17% 5.0 mph WNW8.0 kmh WNW 6.9 mph11.1 kmh 24.98 in845.9 mb 0.00 in0.0 mm 0.00 in/hr0.0 mm/hr 0.00 in0.0 mm
06:04 PM 45.3°F7.4°C 6.6°F-14.1°C 20% 5.0 mph W8.0 kmh W 6.7 mph10.8 kmh 24.98 in845.9 mb 0.00 in0.0 mm 0.00 in/hr0.0 mm/hr 0.00 in0.0 mm
06:09 PM 45.3°F7.4°C 6.6°F-14.1°C 20% 4.0 mph W6.4 kmh W 5.8 mph9.3 kmh 24.98 in845.9 mb 0.00 in0.0 mm 0.00 in/hr0.0 mm/hr 0.00 in0.0 mm
06:14 PM 45.0°F7.2°C 6.3°F-14.3°C 20% 4.0 mph W6.4 kmh W 5.8 mph9.3 kmh 24.98 in845.9 mb 0.00 in0.0 mm 0.00 in/hr0.0 mm/hr 0.00 in0.0 mm
06:19 PM 44.4°F6.9°C 5.9°F-14.5°C 20% 3.0 mph W4.8 kmh W 4.5 mph7.2 kmh 24.98 in845.9 mb 0.00 in0.0 mm 0.00 in/hr0.0 mm/hr 0.00 in0.0 mm
06:24 PM 43.7°F6.5°C 5.4°F-14.8°C 20% 3.0 mph W4.8 kmh W 4.0 mph6.4 kmh 24.95 in844.9 mb 0.00 in0.0 mm 0.00 in/hr0.0 mm/hr 0.00 in0.0 mm
06:29 PM 43.0°F6.1°C 7.7°F-13.5°C 23% 2.0 mph W3.2 kmh W 3.6 mph5.8 kmh 24.95 in844.9 mb 0.00 in0.0 mm 0.00 in/hr0.0 mm/hr 0.00 in0.0 mm
06:34 PM 42.1°F5.6°C 7.0°F-13.9°C 23% 1.0 mph W1.6 kmh W 2.7 mph4.3 kmh 24.95 in844.9 mb 0.00 in0.0 mm 0.00 in/hr0.0 mm/hr 0.00 in0.0 mm
06:39 PM 41.7°F5.4°C 6.6°F-14.1°C 23% Calm Calm -- 24.95 in844.9 mb 0.00 in0.0 mm 0.00 in/hr0.0 mm/hr 0.00 in0.0 mm
06:44 PM 41.5°F5.3°C 9.3°F-12.6°C 26% Calm Calm 3.6 mph5.8 kmh 24.95 in844.9 mb 0.00 in0.0 mm 0.00 in/hr0.0 mm/hr 0.00 in0.0 mm
06:49 PM 41.5°F5.3°C 9.3°F-12.6°C 26% 1.0 mph W1.6 kmh W 3.1 mph5.0 kmh 24.95 in844.9 mb 0.00 in0.0 mm 0.00 in/hr0.0 mm/hr 0.00 in0.0 mm
06:54 PM 41.2°F5.1°C 9.0°F-12.8°C 26% Calm Calm -- 24.95 in844.9 mb 0.00 in0.0 mm 0.00 in/hr0.0 mm/hr 0.00 in0.0 mm
06:59 PM 40.6°F4.8°C 10.0°F-12.2°C 28% 1.0 mph W1.6 kmh W 4.0 mph6.4 kmh 24.95 in844.9 mb 0.00 in0.0 mm 0.00 in/hr0.0 mm/hr 0.00 in0.0 mm
07:04 PM 40.1°F4.5°C 9.7°F-12.4°C 28% 3.0 mph W4.8 kmh W 4.9 mph7.9 kmh 24.95 in844.9 mb 0.00 in0.0 mm 0.00 in/hr0.0 mm/hr 0.00 in0.0 mm
07:09 PM 39.7°F4.3°C 10.0°F-12.2°C 29% 3.0 mph W4.8 kmh W 4.9 mph7.9 kmh 24.98 in845.9 mb 0.00 in0.0 mm 0.00 in/hr0.0 mm/hr 0.00 in0.0 mm
07:14 PM 39.6°F4.2°C 10.0°F-12.2°C 29% 3.0 mph WSW4.8 kmh WSW 4.9 mph7.9 kmh 24.98 in845.9 mb 0.00 in0.0 mm 0.00 in/hr0.0 mm/hr 0.00 in0.0 mm
07:19 PM 39.4°F4.1°C 9.9°F-12.3°C 29% 2.0 mph WSW3.2 kmh WSW 3.6 mph5.8 kmh 24.98 in845.9 mb 0.00 in0.0 mm 0.00 in/hr0.0 mm/hr 0.00 in0.0 mm
07:24 PM 39.2°F4.0°C 10.4°F-12.0°C 30% 2.0 mph WSW3.2 kmh WSW 4.5 mph7.2 kmh 24.98 in845.9 mb 0.00 in0.0 mm 0.00 in/hr0.0 mm/hr 0.00 in0.0 mm
07:29 PM 39.0°F3.9°C 10.2°F-12.1°C 30% 2.0 mph WSW3.2 kmh WSW 4.5 mph7.2 kmh 24.98 in845.9 mb 0.00 in0.0 mm 0.00 in/hr0.0 mm/hr 0.00 in0.0 mm
07:34 PM 38.5°F3.6°C 9.9°F-12.3°C 30% 1.0 mph WSW1.6 kmh WSW 3.1 mph5.0 kmh 24.98 in845.9 mb 0.00 in0.0 mm 0.00 in/hr0.0 mm/hr 0.00 in0.0 mm
07:39 PM 38.1°F3.4°C 9.5°F-12.5°C 30% 1.0 mph WSW1.6 kmh WSW 3.6 mph5.8 kmh 24.95 in844.9 mb 0.00 in0.0 mm 0.00 in/hr0.0 mm/hr 0.00 in0.0 mm
07:44 PM 37.9°F3.3°C 10.0°F-12.2°C 31% 1.0 mph WSW1.6 kmh WSW 3.1 mph5.0 kmh 24.95 in844.9 mb 0.00 in0.0 mm 0.00 in/hr0.0 mm/hr 0.00 in0.0 mm
07:49 PM 37.9°F3.3°C 10.0°F-12.2°C 31% 1.0 mph WSW1.6 kmh WSW 5.4 mph8.7 kmh 24.95 in844.9 mb 0.00 in0.0 mm 0.00 in/hr0.0 mm/hr 0.00 in0.0 mm
07:54 PM 37.6°F3.1°C 9.7°F-12.4°C 31% 2.0 mph W3.2 kmh W 4.5 mph7.2 kmh 24.95 in844.9 mb 0.00 in0.0 mm 0.00 in/hr0.0 mm/hr 0.00 in0.0 mm
07:59 PM 37.4°F3.0°C 9.5°F-12.5°C 31% 1.0 mph W1.6 kmh W 2.7 mph4.3 kmh 24.95 in844.9 mb 0.00 in0.0 mm 0.00 in/hr0.0 mm/hr 0.00 in0.0 mm
08:04 PM 36.9°F2.7°C 9.1°F-12.7°C 31% Calm Calm -- 24.95 in844.9 mb 0.00 in0.0 mm 0.00 in/hr0.0 mm/hr 0.00 in0.0 mm
08:09 PM 37.0°F2.8°C 9.3°F-12.6°C 31% Calm Calm -- 24.95 in844.9 mb 0.00 in0.0 mm 0.00 in/hr0.0 mm/hr 0.00 in0.0 mm
08:14 PM 37.4°F3.0°C 9.5°F-12.5°C 31% Calm Calm -- 24.95 in844.9 mb 0.00 in0.0 mm 0.00 in/hr0.0 mm/hr 0.00 in0.0 mm
08:19 PM 37.0°F2.8°C 9.3°F-12.6°C 31% Calm Calm -- 24.95 in844.9 mb 0.00 in0.0 mm 0.00 in/hr0.0 mm/hr 0.00 in0.0 mm
08:24 PM 37.0°F2.8°C 9.3°F-12.6°C 31% Calm Calm 3.1 mph5.0 kmh 24.98 in845.9 mb 0.00 in0.0 mm 0.00 in/hr0.0 mm/hr 0.00 in0.0 mm
08:29 PM 36.7°F2.6°C 9.7°F-12.4°C 32% 1.0 mph WSW1.6 kmh WSW 5.8 mph9.3 kmh 24.98 in845.9 mb 0.00 in0.0 mm 0.00 in/hr0.0 mm/hr 0.00 in0.0 mm
08:34 PM 36.5°F2.5°C 9.5°F-12.5°C 32% 2.0 mph SW3.2 kmh SW 3.6 mph5.8 kmh 24.98 in845.9 mb 0.00 in0.0 mm 0.00 in/hr0.0 mm/hr 0.00 in0.0 mm
08:39 PM 36.5°F2.5°C 10.2°F-12.1°C 33% 1.0 mph SW1.6 kmh SW 4.0 mph6.4 kmh 24.95 in844.9 mb 0.00 in0.0 mm 0.00 in/hr0.0 mm/hr 0.00 in0.0 mm
08:44 PM 36.3°F2.4°C 10.0°F-12.2°C 33% 1.0 mph SW1.6 kmh SW 3.1 mph5.0 kmh 24.95 in844.9 mb 0.00 in0.0 mm 0.00 in/hr0.0 mm/hr 0.00 in0.0 mm
08:50 PM 36.5°F2.5°C 10.8°F-11.8°C 34% Calm Calm 3.1 mph5.0 kmh 24.95 in844.9 mb 0.00 in0.0 mm 0.00 in/hr0.0 mm/hr 0.00 in0.0 mm
08:55 PM 36.7°F2.6°C 10.4°F-12.0°C 33% 1.0 mph SW1.6 kmh SW 5.4 mph8.7 kmh 24.95 in844.9 mb 0.00 in0.0 mm 0.00 in/hr0.0 mm/hr 0.00 in0.0 mm
09:00 PM 37.0°F2.8°C 10.6°F-11.9°C 33% 2.0 mph WSW3.2 kmh WSW 5.4 mph8.7 kmh 24.95 in844.9 mb 0.00 in0.0 mm 0.00 in/hr0.0 mm/hr 0.00 in0.0 mm
09:05 PM 37.2°F2.9°C 10.8°F-11.8°C 33% 3.0 mph SW4.8 kmh SW 5.8 mph9.3 kmh 24.95 in844.9 mb 0.00 in0.0 mm 0.00 in/hr0.0 mm/hr 0.00 in0.0 mm
09:10 PM 37.2°F2.9°C 10.8°F-11.8°C 33% 4.0 mph SW6.4 kmh SW 6.9 mph11.1 kmh 24.95 in844.9 mb 0.00 in0.0 mm 0.00 in/hr0.0 mm/hr 0.00 in0.0 mm
09:15 PM 37.0°F2.8°C 10.6°F-11.9°C 33% 4.0 mph SW6.4 kmh SW 5.4 mph8.7 kmh 24.95 in844.9 mb 0.00 in0.0 mm 0.00 in/hr0.0 mm/hr 0.00 in0.0 mm
09:20 PM 37.0°F2.8°C 10.6°F-11.9°C 33% 3.0 mph SW4.8 kmh SW 5.8 mph9.3 kmh 24.95 in844.9 mb 0.00 in0.0 mm 0.00 in/hr0.0 mm/hr 0.00 in0.0 mm
09:25 PM 37.0°F2.8°C 10.6°F-11.9°C 33% 2.0 mph SSW3.2 kmh SSW 5.4 mph8.7 kmh 24.95 in844.9 mb 0.00 in0.0 mm 0.00 in/hr0.0 mm/hr 0.00 in0.0 mm
09:30 PM 37.0°F2.8°C 10.6°F-11.9°C 33% 2.0 mph SW3.2 kmh SW 5.8 mph9.3 kmh 24.95 in844.9 mb 0.00 in0.0 mm 0.00 in/hr0.0 mm/hr 0.00 in0.0 mm
09:40 PM 36.3°F2.4°C 10.6°F-11.9°C 34% 1.0 mph WSW1.6 kmh WSW 3.6 mph5.8 kmh 24.95 in844.9 mb 0.00 in0.0 mm 0.00 in/hr0.0 mm/hr 0.00 in0.0 mm
09:45 PM 36.5°F2.5°C 10.2°F-12.1°C 33% 1.0 mph WSW1.6 kmh WSW 3.6 mph5.8 kmh 24.95 in844.9 mb 0.00 in0.0 mm 0.00 in/hr0.0 mm/hr 0.00 in0.0 mm
09:50 PM 36.3°F2.4°C 10.6°F-11.9°C 34% 1.0 mph WSW1.6 kmh WSW 3.6 mph5.8 kmh 24.95 in844.9 mb 0.00 in0.0 mm 0.00 in/hr0.0 mm/hr 0.00 in0.0 mm
09:55 PM 36.3°F2.4°C 10.6°F-11.9°C 34% 1.0 mph SW1.6 kmh SW 5.4 mph8.7 kmh 24.95 in844.9 mb 0.00 in0.0 mm 0.00 in/hr0.0 mm/hr 0.00 in0.0 mm
10:00 PM 36.3°F2.4°C 10.6°F-11.9°C 34% 1.0 mph SW1.6 kmh SW 3.1 mph5.0 kmh 24.95 in844.9 mb 0.00 in0.0 mm 0.00 in/hr0.0 mm/hr 0.00 in0.0 mm
10:05 PM 36.0°F2.2°C 10.4°F-12.0°C 34% Calm Calm 2.7 mph4.3 kmh 24.95 in844.9 mb 0.00 in0.0 mm 0.00 in/hr0.0 mm/hr 0.00 in0.0 mm
10:10 PM 36.3°F2.4°C 10.6°F-11.9°C 34% 1.0 mph SW1.6 kmh SW 4.5 mph7.2 kmh 24.95 in844.9 mb 0.00 in0.0 mm 0.00 in/hr0.0 mm/hr 0.00 in0.0 mm
10:15 PM 35.8°F2.1°C 10.2°F-12.1°C 34% 1.0 mph SW1.6 kmh SW 3.6 mph5.8 kmh 24.95 in844.9 mb 0.00 in0.0 mm 0.00 in/hr0.0 mm/hr 0.00 in0.0 mm
10:20 PM 36.1°F2.3°C 10.6°F-11.9°C 34% 1.0 mph SW1.6 kmh SW 3.6 mph5.8 kmh 24.95 in844.9 mb 0.00 in0.0 mm 0.00 in/hr0.0 mm/hr 0.00 in0.0 mm
10:25 PM 36.0°F2.2°C 10.4°F-12.0°C 34% 1.0 mph SW1.6 kmh SW 3.1 mph5.0 kmh 24.95 in844.9 mb 0.00 in0.0 mm 0.00 in/hr0.0 mm/hr 0.00 in0.0 mm
10:30 PM 35.8°F2.1°C 10.2°F-12.1°C 34% Calm Calm -- 24.95 in844.9 mb 0.00 in0.0 mm 0.00 in/hr0.0 mm/hr 0.00 in0.0 mm
10:35 PM 35.8°F2.1°C 10.8°F-11.8°C 35% Calm Calm 4.0 mph6.4 kmh 24.95 in844.9 mb 0.00 in0.0 mm 0.00 in/hr0.0 mm/hr 0.00 in0.0 mm
10:40 PM 35.8°F2.1°C 10.8°F-11.8°C 35% 1.0 mph SW1.6 kmh SW 4.5 mph7.2 kmh 24.95 in844.9 mb 0.00 in0.0 mm 0.00 in/hr0.0 mm/hr 0.00 in0.0 mm
10:45 PM 35.8°F2.1°C 10.8°F-11.8°C 35% Calm Calm -- 24.95 in844.9 mb 0.00 in0.0 mm 0.00 in/hr0.0 mm/hr 0.00 in0.0 mm
10:50 PM 36.1°F2.3°C 11.1°F-11.6°C 35% Calm Calm 3.6 mph5.8 kmh 24.95 in844.9 mb 0.00 in0.0 mm 0.00 in/hr0.0 mm/hr 0.00 in0.0 mm
10:55 PM 36.1°F2.3°C 11.1°F-11.6°C 35% 1.0 mph WSW1.6 kmh WSW 4.9 mph7.9 kmh 24.95 in844.9 mb 0.00 in0.0 mm 0.00 in/hr0.0 mm/hr 0.00 in0.0 mm
11:00 PM 36.1°F2.3°C 10.6°F-11.9°C 34% 2.0 mph WSW3.2 kmh WSW 3.6 mph5.8 kmh 24.95 in844.9 mb 0.00 in0.0 mm 0.00 in/hr0.0 mm/hr 0.00 in0.0 mm
11:05 PM 36.1°F2.3°C 10.6°F-11.9°C 34% 2.0 mph WSW3.2 kmh WSW 5.4 mph8.7 kmh 24.95 in844.9 mb 0.00 in0.0 mm 0.00 in/hr0.0 mm/hr 0.00 in0.0 mm
11:10 PM 35.8°F2.1°C 10.2°F-12.1°C 34% 2.0 mph WSW3.2 kmh WSW 4.5 mph7.2 kmh 24.95 in844.9 mb 0.00 in0.0 mm 0.00 in/hr0.0 mm/hr 0.00 in0.0 mm
11:15 PM 35.4°F1.9°C 10.6°F-11.9°C 35% 1.0 mph WSW1.6 kmh WSW -- 24.95 in844.9 mb 0.00 in0.0 mm 0.00 in/hr0.0 mm/hr 0.00 in0.0 mm
11:20 PM 35.1°F1.7°C 10.2°F-12.1°C 35% Calm Calm -- 24.95 in844.9 mb 0.00 in0.0 mm 0.00 in/hr0.0 mm/hr 0.00 in0.0 mm
11:25 PM 35.2°F1.8°C 10.9°F-11.7°C 36% Calm Calm 2.7 mph4.3 kmh 24.92 in843.9 mb 0.00 in0.0 mm 0.00 in/hr0.0 mm/hr 0.00 in0.0 mm
11:30 PM 35.8°F2.1°C 10.8°F-11.8°C 35% Calm Calm -- 24.92 in843.9 mb 0.00 in0.0 mm 0.00 in/hr0.0 mm/hr 0.00 in0.0 mm
11:35 PM 35.6°F2.0°C 10.8°F-11.8°C 35% 1.0 mph WSW1.6 kmh WSW 4.9 mph7.9 kmh 24.92 in843.9 mb 0.00 in0.0 mm 0.00 in/hr0.0 mm/hr 0.00 in0.0 mm
11:40 PM 34.9°F1.6°C 10.0°F-12.2°C 35% 3.0 mph SW4.8 kmh SW 5.4 mph8.7 kmh 24.92 in843.9 mb 0.00 in0.0 mm 0.00 in/hr0.0 mm/hr 0.00 in0.0 mm
11:45 PM 34.7°F1.5°C 11.1°F-11.6°C 37% 4.0 mph SW6.4 kmh SW 5.4 mph8.7 kmh 24.92 in843.9 mb 0.00 in0.0 mm 0.00 in/hr0.0 mm/hr 0.00 in0.0 mm
11:50 PM 34.9°F1.6°C 11.3°F-11.5°C 37% 2.0 mph SW3.2 kmh SW 4.0 mph6.4 kmh 24.92 in843.9 mb 0.00 in0.0 mm 0.00 in/hr0.0 mm/hr 0.00 in0.0 mm
11:55 PM 34.9°F1.6°C 11.3°F-11.5°C 37% Calm Calm -- 24.92 in843.9 mb 0.00 in0.0 mm 0.00 in/hr0.0 mm/hr 0.00 in0.0 mm